Time;durP1;ratioP1;P1;durP2;ratioP2;P2;SDS_P1;SDS_P2;PMS_P1;PMS_P2;Temp;Humidity;BMP_temperature;BMP_pressure;BME280_temperature;BME280_humidity;BME280_pressure;Samples;Min_cycle;Max_cycle;Signal;HPM_P1;HPM_P2
2022/06/02 00:00:19;;;;;;;2.00;1.77;;;14.80;99.90;;;;;;5094085;28;20446;-47
2022/06/02 00:03:24;;;;;;;2.10;1.90;;;14.80;99.90;;;;;;5094444;28;20509;-45
2022/06/02 00:06:11;;;;;;;3.77;1.67;;;14.80;99.90;;;;;;5094193;28;20447;-48
2022/06/02 00:08:53;;;;;;;2.80;2.07;;;14.80;99.90;;;;;;5094085;28;20446;-48
2022/06/02 00:11:31;;;;;;;2.63;2.13;;;14.70;99.90;;;;;;5094188;28;20947;-47
2022/06/02 00:14:05;;;;;;;2.83;2.53;;;14.20;99.90;;;;;;5093800;28;20550;-46
2022/06/02 00:16:38;;;;;;;4.60;2.73;;;14.10;99.90;;;;;;5093755;28;20873;-44
2022/06/02 00:19:18;;;;;;;2.53;2.33;;;14.20;99.90;;;;;;5094224;28;20471;-44
2022/06/02 00:21:52;;;;;;;3.17;2.70;;;14.10;99.90;;;;;;5093910;28;20530;-45
2022/06/02 00:24:32;;;;;;;2.70;2.20;;;14.00;99.90;;;;;;5138438;22;20575;-45
2022/06/02 00:27:05;;;;;;;2.17;1.97;;;14.10;99.90;;;;;;5073527;28;20450;-46
2022/06/02 00:29:39;;;;;;;2.73;2.10;;;14.10;99.90;;;;;;5073365;28;20445;-45
2022/06/02 00:32:13;;;;;;;2.20;1.87;;;14.20;99.90;;;;;;5073647;28;20523;-45
2022/06/02 00:34:46;;;;;;;2.47;1.80;;;14.30;99.90;;;;;;5073341;28;21005;-45
2022/06/02 00:37:20;;;;;;;2.07;1.90;;;14.40;99.90;;;;;;5073033;28;20476;-45
2022/06/02 00:39:49;;;;;;;1.90;1.73;;;14.30;99.90;;;;;;5073006;28;20454;-44
2022/06/02 00:42:33;;;;;;;1.50;1.30;;;14.40;99.90;;;;;;5073362;28;20580;-45
2022/06/02 00:45:01;;;;;;;2.23;1.80;;;14.50;99.90;;;;;;5073230;28;20506;-44
2022/06/02 00:47:42;;;;;;;4.23;1.60;;;14.50;99.90;;;;;;5073270;28;20444;-47
2022/06/02 00:50:21;;;;;;;4.03;2.20;;;14.60;99.90;;;;;;5072725;28;20527;-46
2022/06/02 00:52:55;;;;;;;2.50;2.20;;;14.60;99.90;;;;;;5072881;28;20519;-44
2022/06/02 00:58:30;;;;;;;2.70;2.50;;;14.70;99.90;;;;;;5072883;28;20510;-45
2022/06/02 01:01:04;;;;;;;4.13;2.20;;;14.70;99.90;;;;;;5072812;28;20450;-47
2022/06/02 01:03:39;;;;;;;2.47;2.27;;;14.70;99.90;;;;;;5072648;28;20567;-49
2022/06/02 01:06:23;;;;;;;4.40;2.17;;;14.40;99.90;;;;;;5072655;28;20444;-45
2022/06/02 01:09:24;;;;;;;2.20;2.00;;;14.20;99.90;;;;;;5072368;28;20794;-45
2022/06/02 01:12:04;;;;;;;2.60;2.40;;;14.10;99.90;;;;;;5003887;28;20472;-47
2022/06/02 01:14:46;;;;;;;2.97;2.57;;;14.20;99.90;;;;;;5072585;28;20492;-44
2022/06/02 01:17:28;;;;;;;3.20;1.77;;;14.30;99.90;;;;;;5072358;28;20493;-46
2022/06/02 01:20:12;;;;;;;2.10;1.90;;;14.40;99.90;;;;;;5072517;28;20527;-45
2022/06/02 01:23:23;;;;;;;3.50;2.23;;;14.50;99.90;;;;;;5072440;28;20472;-44
2022/06/02 01:26:13;;;;;;;2.33;2.13;;;14.40;99.90;;;;;;5072655;28;20464;-47
2022/06/02 01:28:53;;;;;;;2.00;1.57;;;14.10;99.90;;;;;;5072380;28;20455;-42
2022/06/02 01:31:33;;;;;;;2.50;1.90;;;14.10;99.90;;;;;;5072331;28;20451;-44
2022/06/02 01:34:06;;;;;;;2.57;2.17;;;14.20;99.90;;;;;;5072250;28;20964;-45
2022/06/02 01:36:40;;;;;;;2.83;2.17;;;14.20;99.90;;;;;;5072279;28;20479;-48
2022/06/02 01:39:30;;;;;;;1.90;1.80;;;14.30;99.90;;;;;;5072001;28;20480;-45
2022/06/02 01:42:10;;;;;;;2.50;2.10;;;14.40;99.90;;;;;;5071770;28;20753;-44
2022/06/02 01:44:44;;;;;;;2.30;2.07;;;14.40;99.90;;;;;;5071801;28;20515;-45
2022/06/02 01:47:19;;;;;;;2.67;2.47;;;14.40;99.90;;;;;;5071952;28;20455;-44
2022/06/02 01:50:07;;;;;;;4.17;2.40;;;14.30;99.90;;;;;;5071547;28;20446;-46
2022/06/02 01:52:44;;;;;;;3.60;2.87;;;14.00;99.90;;;;;;5071821;28;20468;-45
2022/06/02 01:55:28;;;;;;;2.90;2.30;;;13.90;99.90;;;;;;5071883;28;20444;-45
2022/06/02 01:58:14;;;;;;;2.53;2.33;;;13.80;99.90;;;;;;5071692;28;20475;-45
2022/06/02 02:00:44;;;;;;;2.30;2.10;;;13.80;99.90;;;;;;5071356;28;20468;-45
2022/06/02 02:03:22;;;;;;;2.50;2.27;;;13.80;99.90;;;;;;5071449;28;20526;-45
2022/06/02 02:06:02;;;;;;;2.27;1.73;;;14.00;99.90;;;;;;5071385;28;21024;-46
2022/06/02 02:08:53;;;;;;;2.13;1.90;;;14.10;99.90;;;;;;5071766;28;20872;-45
2022/06/02 02:11:42;;;;;;;1.70;1.47;;;14.30;99.90;;;;;;5071884;28;20476;-45
2022/06/02 02:14:22;;;;;;;2.50;2.30;;;14.20;99.90;;;;;;5071210;28;20984;-45
2022/06/02 02:16:55;;;;;;;2.20;2.00;;;14.10;99.90;;;;;;5071507;28;20479;-45
2022/06/02 02:19:35;;;;;;;2.93;2.60;;;14.10;99.90;;;;;;5071158;28;20462;-47
2022/06/02 02:22:09;;;;;;;3.93;2.87;;;14.00;99.90;;;;;;5071483;28;20468;-45
2022/06/02 02:24:51;;;;;;;3.70;2.50;;;14.00;99.90;;;;;;5071504;28;20503;-45
2022/06/02 02:27:25;;;;;;;4.40;2.90;;;14.10;99.90;;;;;;5071248;28;20529;-44
2022/06/02 02:30:01;;;;;;;2.30;2.10;;;14.10;99.90;;;;;;5071051;28;20476;-44
2022/06/02 02:32:36;;;;;;;3.17;2.63;;;14.20;99.90;;;;;;5071448;28;20526;-44
2022/06/02 02:35:16;;;;;;;4.23;2.17;;;14.30;99.90;;;;;;5071233;28;20449;-44
2022/06/02 02:37:49;;;;;;;3.70;2.33;;;14.10;99.90;;;;;;5071235;28;20468;-49
2022/06/02 02:40:22;;;;;;;3.13;2.63;;;14.00;99.90;;;;;;5070717;28;20539;-45
2022/06/02 02:42:55;;;;;;;2.40;2.20;;;14.10;99.90;;;;;;5071068;28;20480;-44
2022/06/02 02:45:34;;;;;;;2.30;2.10;;;14.20;99.90;;;;;;5071305;28;20444;-45
2022/06/02 02:48:11;;;;;;;3.07;2.53;;;14.30;99.90;;;;;;5071197;28;20440;-45
2022/06/02 02:50:44;;;;;;;3.43;2.73;;;14.40;99.90;;;;;;5070647;28;20444;-50
2022/06/02 02:53:18;;;;;;;2.67;2.47;;;14.30;99.90;;;;;;5070960;28;20980;-44
2022/06/02 02:55:55;;;;;;;2.50;2.30;;;14.30;99.90;;;;;;5071060;28;20444;-46
2022/06/02 02:58:28;;;;;;;3.37;2.20;;;13.90;99.90;;;;;;5070735;28;20477;-45
2022/06/02 03:01:01;;;;;;;3.30;2.60;;;13.70;99.90;;;;;;5070831;28;20530;-45
2022/06/02 03:03:34;;;;;;;2.20;2.00;;;13.70;99.90;;;;;;5070828;28;20916;-45
2022/06/02 03:06:14;;;;;;;5.90;2.70;;;13.80;99.90;;;;;;5070849;28;20497;-47
2022/06/02 03:08:47;;;;;;;3.00;2.60;;;13.90;99.90;;;;;;5070815;28;20491;-53
2022/06/02 03:11:32;;;;;;;2.40;2.20;;;14.10;99.90;;;;;;5071262;28;20440;-45
2022/06/02 03:14:08;;;;;;;2.93;2.63;;;14.20;99.90;;;;;;5071134;28;20509;-45
2022/06/02 03:16:38;;;;;;;2.40;2.20;;;14.30;99.90;;;;;;5073860;28;20467;-45
2022/06/02 03:19:17;;;;;;;2.60;2.40;;;14.40;99.90;;;;;;5074553;28;20846;-49
2022/06/02 03:21:53;;;;;;;3.20;2.90;;;14.40;99.90;;;;;;5075101;28;20531;-45
2022/06/02 03:24:57;;;;;;;2.50;2.30;;;14.50;99.90;;;;;;5074296;28;20512;-45
2022/06/02 03:27:44;;;;;;;2.77;2.57;;;14.50;99.90;;;;;;5074613;28;20446;-48
2022/06/02 03:30:19;;;;;;;2.97;2.77;;;14.50;99.90;;;;;;5074589;28;20472;-45
2022/06/02 03:33:11;;;;;;;2.90;2.70;;;14.50;99.90;;;;;;5074592;28;20468;-44
2022/06/02 03:35:47;;;;;;;2.93;2.63;;;14.50;99.90;;;;;;5074336;28;20435;-45
2022/06/02 03:38:36;;;;;;;3.53;2.43;;;14.40;99.90;;;;;;5074357;28;20801;-45
2022/06/02 03:41:25;;;;;;;2.70;2.50;;;14.30;99.90;;;;;;5074098;28;20459;-49
2022/06/02 03:43:57;;;;;;;5.37;2.67;;;14.40;99.90;;;;;;5074062;28;20957;-45
2022/06/02 03:46:46;;;;;;;2.70;2.50;;;14.40;99.90;;;;;;5074501;28;20448;-45
2022/06/02 03:49:32;;;;;;;2.60;2.27;;;14.10;99.90;;;;;;5073991;28;20486;-45
2022/06/02 03:52:10;;;;;;;2.33;2.13;;;14.10;99.90;;;;;;5074226;28;20444;-46
2022/06/02 03:54:59;;;;;;;3.43;2.50;;;14.20;99.90;;;;;;5074157;28;20869;-45
2022/06/02 03:57:42;;;;;;;2.30;2.00;;;14.30;99.90;;;;;;5074282;28;20443;-44
2022/06/02 04:00:18;;;;;;;2.60;2.40;;;14.30;99.90;;;;;;5073968;28;20463;-45
2022/06/02 04:02:51;;;;;;;2.90;2.60;;;14.40;99.90;;;;;;5073688;28;20948;-45
2022/06/02 04:05:41;;;;;;;3.80;3.10;;;14.20;99.90;;;;;;5074042;28;20980;-44
2022/06/02 04:08:30;;;;;;;3.53;3.23;;;14.00;99.90;;;;;;5074117;28;20528;-49
2022/06/02 04:11:10;;;;;;;7.43;5.40;;;14.00;99.90;;;;;;5073416;28;20519;-47
2022/06/02 04:13:45;;;;;;;5.80;5.20;;;13.80;99.90;;;;;;5073823;28;20526;-49
2022/06/02 04:16:42;;;;;;;5.30;4.63;;;13.80;99.90;;;;;;5074003;28;20438;-44
2022/06/02 04:22:42;;;;;;;7.07;4.30;;;13.90;99.90;;;;;;5073813;28;20888;-49
2022/06/02 04:25:22;;;;;;;5.83;4.70;;;14.00;99.90;;;;;;5073701;28;20436;-43
2022/06/02 04:28:01;;;;;;;4.77;3.53;;;14.10;99.90;;;;;;5072847;28;20471;-44
2022/06/02 04:30:34;;;;;;;3.50;3.03;;;14.20;99.90;;;;;;5073183;28;20971;-45
2022/06/02 04:33:09;;;;;;;3.37;3.07;;;14.20;99.90;;;;;;5073410;28;20496;-45
2022/06/02 04:35:45;;;;;;;2.90;2.60;;;14.30;99.90;;;;;;5073396;28;20932;-45
2022/06/02 04:38:21;;;;;;;3.47;3.13;;;14.30;99.90;;;;;;5073358;28;20493;-44
2022/06/02 04:40:59;;;;;;;2.67;2.47;;;14.20;99.90;;;;;;5072979;28;20519;-46
2022/06/02 04:43:36;;;;;;;3.97;2.87;;;14.00;99.90;;;;;;5073023;28;20529;-45
2022/06/02 04:46:17;;;;;;;2.83;2.63;;;14.00;99.90;;;;;;5073226;28;20479;-49
2022/06/02 04:48:56;;;;;;;4.17;2.97;;;14.00;99.90;;;;;;5072972;28;20464;-43
2022/06/02 04:51:30;;;;;;;3.30;3.00;;;14.10;99.90;;;;;;5073475;28;20440;-44
2022/06/02 04:54:05;;;;;;;5.10;3.00;;;13.90;99.90;;;;;;5073145;28;20454;-44
2022/06/02 04:56:38;;;;;;;3.33;3.03;;;13.60;99.90;;;;;;5072776;28;20502;-45
2022/06/02 04:59:13;;;;;;;3.10;2.80;;;13.70;99.90;;;;;;5072707;28;20483;-44
2022/06/02 05:01:52;;;;;;;2.83;2.63;;;13.70;99.90;;;;;;5073155;28;20523;-44
2022/06/02 05:04:37;;;;;;;3.13;2.83;;;13.80;99.90;;;;;;5072698;28;20827;-45
2022/06/02 05:07:17;;;;;;;2.97;2.67;;;13.90;99.90;;;;;;5072926;28;20532;-47
2022/06/02 05:09:53;;;;;;;3.53;3.00;;;14.00;99.90;;;;;;5072438;28;20440;-44
2022/06/02 05:12:31;;;;;;;3.37;3.00;;;14.10;99.90;;;;;;5072703;28;20493;-45
2022/06/02 05:15:12;;;;;;;3.00;2.70;;;14.20;99.90;;;;;;5072712;28;20468;-44
2022/06/02 05:18:08;;;;;;;4.10;3.40;;;14.10;99.90;;;;;;5072549;28;20436;-45
2022/06/02 05:21:04;;;;;;;3.40;3.10;;;14.20;99.90;;;;;;5072170;28;20896;-44
2022/06/02 05:24:00;;;;;;;3.40;3.10;;;14.30;99.90;;;;;;5072019;28;20499;-45
2022/06/02 05:26:57;;;;;;;8.00;3.27;;;14.40;99.90;;;;;;5072394;28;20436;-44
2022/06/02 05:29:51;;;;;;;3.57;3.27;;;14.40;99.90;;;;;;5072053;28;20875;-49
2022/06/02 05:33:03;;;;;;;4.03;3.63;;;14.50;99.90;;;;;;5072509;28;20444;-45
2022/06/02 05:35:53;;;;;;;3.23;3.00;;;14.60;99.90;;;;;;5072344;28;20482;-45
2022/06/02 05:38:40;;;;;;;2.73;2.53;;;14.70;99.90;;;;;;5071252;28;20436;-44
2022/06/02 05:41:17;;;;;;;3.60;3.20;;;14.80;99.90;;;;;;5071768;28;20525;-45
2022/06/02 05:43:51;;;;;;;2.60;2.40;;;14.80;99.90;;;;;;5071810;28;20555;-45
2022/06/02 05:46:35;;;;;;;4.47;3.07;;;14.80;99.90;;;;;;5072268;28;20811;-44
2022/06/02 05:49:12;;;;;;;2.70;2.50;;;14.90;99.90;;;;;;5071648;28;20479;-45
2022/06/02 05:51:48;;;;;;;2.90;2.70;;;15.00;99.90;;;;;;5071787;28;20483;-46
2022/06/02 05:54:30;;;;;;;3.37;2.87;;;15.00;99.90;;;;;;5071559;28;20535;-45
2022/06/02 05:57:10;;;;;;;3.00;2.80;;;15.00;99.90;;;;;;5071922;28;20441;-44
2022/06/02 05:59:58;;;;;;;3.20;2.90;;;15.10;99.90;;;;;;5071437;28;20531;-46
2022/06/02 06:02:40;;;;;;;3.70;3.40;;;14.90;99.90;;;;;;5071706;28;20519;-45
2022/06/02 06:05:16;;;;;;;2.90;2.60;;;14.90;99.90;;;;;;5071588;28;21056;-45
2022/06/02 06:08:15;;;;;;;3.07;2.77;;;14.90;99.90;;;;;;5071838;28;20468;-45
2022/06/02 06:10:54;;;;;;;2.87;2.60;;;14.90;99.90;;;;;;5068426;28;20445;-45
2022/06/02 06:13:48;;;;;;;2.73;2.53;;;14.90;99.90;;;;;;5071933;28;20544;-45
2022/06/02 06:16:21;;;;;;;6.70;2.73;;;14.80;99.90;;;;;;5071415;28;20444;-45
2022/06/02 06:19:02;;;;;;;2.70;2.50;;;14.80;99.90;;;;;;5071244;28;20476;-44
2022/06/02 06:21:50;;;;;;;2.30;2.10;;;14.80;99.90;;;;;;5071835;28;20933;-45
2022/06/02 06:24:31;;;;;;;3.13;2.83;;;14.70;99.90;;;;;;5138530;22;20479;-48
2022/06/02 06:27:06;;;;;;;3.33;3.03;;;14.50;99.90;;;;;;5091820;28;20478;-45
2022/06/02 06:29:44;;;;;;;2.87;2.67;;;14.50;99.90;;;;;;5091420;28;20529;-48
2022/06/02 06:32:20;;;;;;;3.20;2.83;;;14.50;99.90;;;;;;5091608;28;20439;-45
2022/06/02 06:34:55;;;;;;;3.00;2.70;;;14.40;99.90;;;;;;5091608;28;20455;-44
2022/06/02 06:37:50;;;;;;;3.47;2.70;;;14.50;99.90;;;;;;5091581;28;20517;-46
2022/06/02 06:40:36;;;;;;;2.53;2.20;;;14.60;99.90;;;;;;5090712;28;21026;-45
2022/06/02 06:43:12;;;;;;;2.60;2.10;;;14.70;99.90;;;;;;5091472;28;20508;-45
2022/06/02 06:45:48;;;;;;;2.73;1.90;;;14.60;99.90;;;;;;5091198;28;20939;-45
2022/06/02 06:48:23;;;;;;;1.80;1.70;;;14.80;99.90;;;;;;5091274;28;20939;-44
2022/06/02 06:50:57;;;;;;;1.63;1.53;;;14.80;99.90;;;;;;5091047;28;20499;-45
2022/06/02 06:53:34;;;;;;;1.57;1.30;;;14.80;99.90;;;;;;5091321;28;20467;-44
2022/06/02 06:56:10;;;;;;;1.97;1.77;;;14.80;99.90;;;;;;5091191;28;20470;-45
2022/06/02 06:58:59;;;;;;;2.07;1.70;;;14.80;99.90;;;;;;5091263;28;20459;-45
2022/06/02 07:01:37;;;;;;;1.67;1.50;;;15.00;99.90;;;;;;5091348;28;20549;-45
2022/06/02 07:04:16;;;;;;;2.33;1.70;;;15.20;99.90;;;;;;5090867;28;20522;-45
2022/06/02 07:06:57;;;;;;;1.20;1.03;;;15.30;99.90;;;;;;5090898;28;20439;-45
2022/06/02 07:09:35;;;;;;;1.63;1.37;;;15.30;99.90;;;;;;5090966;28;20439;-47
2022/06/02 07:14:56;;;;;;;1.47;1.37;;;15.50;99.90;;;;;;5090873;28;20442;-45
2022/06/02 07:17:29;;;;;;;1.43;1.20;;;15.50;99.90;;;;;;5091021;28;20471;-45
2022/06/02 07:20:05;;;;;;;1.27;1.17;;;15.50;99.90;;;;;;5090766;28;20450;-44
2022/06/02 07:22:42;;;;;;;1.30;1.20;;;15.60;99.90;;;;;;5091073;28;20442;-46
2022/06/02 07:25:19;;;;;;;1.30;1.10;;;15.60;99.90;;;;;;5090826;28;20487;-45
2022/06/02 07:27:54;;;;;;;1.50;1.40;;;15.70;99.90;;;;;;5091064;28;20534;-45
2022/06/02 07:30:52;;;;;;;1.70;1.37;;;16.00;99.90;;;;;;5090737;28;20478;-45
2022/06/02 07:33:29;;;;;;;1.30;1.20;;;16.50;99.90;;;;;;5083295;28;20475;-45
2022/06/02 07:36:25;;;;;;;1.70;1.00;;;17.00;99.90;;;;;;5091160;28;20427;-45
2022/06/02 07:39:04;;;;;;;2.13;1.23;;;17.20;99.90;;;;;;5090964;28;20482;-47
2022/06/02 07:41:51;;;;;;;1.43;1.27;;;17.60;99.90;;;;;;5090335;28;20999;-45
2022/06/02 07:44:47;;;;;;;2.00;1.80;;;18.10;99.90;;;;;;5090795;28;20558;-48
2022/06/02 07:47:33;;;;;;;1.63;1.53;;;18.30;99.90;;;;;;5090703;28;20474;-46
2022/06/02 07:50:09;;;;;;;1.57;1.37;;;18.50;99.90;;;;;;5090449;28;20435;-44
2022/06/02 07:52:48;;;;;;;1.67;1.40;;;18.80;99.90;;;;;;5090841;28;20845;-45
2022/06/02 07:55:23;;;;;;;1.90;1.57;;;18.90;99.90;;;;;;5090583;28;20485;-47
2022/06/02 07:58:04;;;;;;;2.50;1.57;;;18.50;99.90;;;;;;5090827;28;20443;-45
2022/06/02 08:00:39;;;;;;;1.83;1.40;;;18.10;99.90;;;;;;5090254;28;20935;-46
2022/06/02 08:03:40;;;;;;;2.13;1.47;;;18.20;99.90;;;;;;5092683;28;20943;-46
2022/06/02 08:06:14;;;;;;;4.23;1.40;;;17.90;99.90;;;;;;5094089;28;20505;-48
2022/06/02 08:08:49;;;;;;;1.50;1.40;;;17.70;99.90;;;;;;5093816;28;20807;-44
2022/06/02 08:11:30;;;;;;;1.53;1.30;;;17.60;99.90;;;;;;5094100;28;20450;-48
2022/06/02 08:14:10;;;;;;;2.10;1.40;;;17.60;99.90;;;;;;5094075;28;20491;-44
2022/06/02 08:16:52;;;;;;;1.60;1.43;;;17.70;99.90;;;;;;5094186;28;20475;-44
2022/06/02 08:19:29;;;;;;;1.70;1.13;;;17.50;99.90;;;;;;5093865;28;20442;-45
2022/06/02 08:21:59;;;;;;;2.20;1.57;;;17.50;99.90;;;;;;5094132;28;20516;-45
2022/06/02 08:24:57;;;;;;;1.77;1.50;;;17.50;99.90;;;;;;5093738;28;20625;-48
2022/06/02 08:27:53;;;;;;;3.50;1.80;;;17.50;99.90;;;;;;5093242;28;20962;-44
2022/06/02 08:30:26;;;;;;;1.50;1.20;;;17.60;99.90;;;;;;5093489;28;20475;-47
2022/06/02 08:33:10;;;;;;;3.40;1.47;;;17.50;99.90;;;;;;5093907;28;20486;-45
2022/06/02 08:35:44;;;;;;;1.57;1.47;;;17.40;99.90;;;;;;5093685;28;20464;-44
2022/06/02 08:38:33;;;;;;;1.93;1.50;;;17.40;99.90;;;;;;5093778;28;20444;-45
2022/06/02 08:41:30;;;;;;;1.70;1.60;;;17.30;99.90;;;;;;5090399;28;20453;-45
2022/06/02 08:44:29;;;;;;;1.50;1.33;;;17.40;99.90;;;;;;5093410;28;20466;-46
2022/06/02 08:47:25;;;;;;;2.30;1.50;;;17.50;99.90;;;;;;5093536;28;20527;-48
2022/06/02 08:50:15;;;;;;;1.50;1.20;;;17.50;99.90;;;;;;5093744;28;20959;-45
2022/06/02 08:53:30;;;;;;;2.00;1.70;;;17.60;99.90;;;;;;5093522;28;20522;-44
2022/06/02 08:56:20;;;;;;;3.07;1.50;;;17.60;99.90;;;;;;5057730;28;20547;-44
2022/06/02 08:59:50;;;;;;;1.63;1.40;;;17.60;99.90;;;;;;5093532;28;20467;-45
2022/06/02 09:02:42;;;;;;;1.77;1.33;;;17.60;99.90;;;;;;5093112;28;20435;-44
2022/06/02 09:05:45;;;;;;;1.90;1.70;;;17.50;99.90;;;;;;5089765;28;20570;-45
2022/06/02 09:08:45;;;;;;;3.23;2.47;;;17.40;99.90;;;;;;5092989;28;20883;-44
2022/06/02 09:11:29;;;;;;;3.20;1.67;;;17.30;99.90;;;;;;5089618;28;20538;-47
2022/06/02 09:14:18;;;;;;;2.57;2.07;;;17.30;99.90;;;;;;5092729;28;20995;-45
2022/06/02 09:16:57;;;;;;;2.30;2.10;;;17.10;99.90;;;;;;5093284;28;20482;-44
2022/06/02 09:19:41;;;;;;;4.23;1.60;;;17.00;99.90;;;;;;5092570;28;20446;-44
2022/06/02 09:22:42;;;;;;;4.03;2.00;;;16.90;99.90;;;;;;5092826;28;20482;-45
2022/06/02 09:25:22;;;;;;;1.80;1.50;;;16.70;99.90;;;;;;5092411;28;21048;-45
2022/06/02 09:27:58;;;;;;;2.53;1.50;;;16.80;99.90;;;;;;5092306;28;20436;-45
2022/06/02 09:30:37;;;;;;;2.23;1.80;;;16.80;99.90;;;;;;5104433;28;20529;-45
2022/06/02 09:33:37;;;;;;;2.20;2.00;;;16.90;99.90;;;;;;5112781;28;20446;-45
2022/06/02 09:36:27;;;;;;;2.73;1.70;;;16.90;99.90;;;;;;5112990;28;20439;-46
2022/06/02 09:39:11;;;;;;;3.37;2.43;;;17.00;99.90;;;;;;5112488;28;20897;-44
2022/06/02 09:41:52;;;;;;;3.33;2.37;;;17.00;99.90;;;;;;5112221;28;20474;-44
2022/06/02 09:44:27;;;;;;;2.80;2.60;;;17.10;99.90;;;;;;5112555;28;20553;-45
2022/06/02 09:47:33;;;;;;;2.53;2.33;;;17.10;99.90;;;;;;5112602;28;20935;-44
2022/06/02 09:50:35;;;;;;;5.13;4.03;;;17.20;99.90;;;;;;5112006;28;20542;-48
2022/06/02 09:53:43;;;;;;;3.00;2.70;;;17.20;99.90;;;;;;5112268;28;20528;-45
2022/06/02 09:56:48;;;;;;;2.37;2.10;;;17.30;99.90;;;;;;5112602;28;20510;-48
2022/06/02 09:59:24;;;;;;;2.10;1.90;;;17.30;99.90;;;;;;5110925;28;20521;-45
2022/06/02 10:02:06;;;;;;;2.70;2.50;;;17.30;99.90;;;;;;5111188;28;20485;-45
2022/06/02 10:05:06;;;;;;;2.90;2.70;;;17.40;99.90;;;;;;5111867;28;20497;-48
2022/06/02 10:07:55;;;;;;;2.20;2.00;;;17.50;99.90;;;;;;5112347;28;20478;-44
2022/06/02 10:10:48;;;;;;;4.43;2.20;;;17.60;99.90;;;;;;5111958;28;20466;-44
2022/06/02 10:13:59;;;;;;;2.80;2.50;;;17.80;99.90;;;;;;5112014;28;20529;-45
2022/06/02 10:16:50;;;;;;;2.70;2.50;;;18.00;99.90;;;;;;5112121;28;20525;-47
2022/06/02 10:19:49;;;;;;;2.57;2.30;;;18.00;99.90;;;;;;5111882;28;20462;-45
2022/06/02 10:22:21;;;;;;;2.27;2.07;;;18.10;99.90;;;;;;5111738;28;21013;-46
2022/06/02 10:25:23;;;;;;;2.77;2.50;;;18.20;99.90;;;;;;5110842;28;21073;-44
2022/06/02 10:28:44;;;;;;;2.40;2.20;;;18.10;99.90;;;;;;5111756;28;21009;-46
2022/06/02 10:31:43;;;;;;;2.50;2.07;;;18.30;99.90;;;;;;5086269;28;20784;-45
2022/06/02 10:34:54;;;;;;;2.40;2.20;;;18.40;99.90;;;;;;5112262;28;20864;-45
2022/06/02 10:37:43;;;;;;;2.40;2.20;;;18.40;99.90;;;;;;5101488;28;20453;-45
2022/06/02 10:40:22;;;;;;;2.60;2.13;;;18.40;99.90;;;;;;5111137;28;20466;-44
2022/06/02 10:43:17;;;;;;;2.40;2.20;;;18.40;99.90;;;;;;5111967;28;20974;-44
2022/06/02 10:46:23;;;;;;;2.33;2.13;;;18.40;99.90;;;;;;5111730;28;20821;-45
2022/06/02 10:49:13;;;;;;;2.23;1.80;;;18.50;99.90;;;;;;5068972;28;20471;-44
2022/06/02 10:52:09;;;;;;;3.30;2.40;;;18.60;99.90;;;;;;5110166;28;20518;-47
2022/06/02 10:55:11;;;;;;;2.40;2.20;;;18.70;99.90;;;;;;5111000;28;20494;-48
2022/06/02 10:58:23;;;;;;;2.40;2.20;;;18.80;99.90;;;;;;5110516;28;20473;-47
2022/06/02 11:01:34;;;;;;;4.40;2.50;;;18.90;99.90;;;;;;5110583;28;21017;-47
2022/06/02 11:04:39;;;;;;;3.20;2.10;;;19.00;99.90;;;;;;5111767;28;20477;-45
2022/06/02 11:07:59;;;;;;;2.63;1.80;;;19.10;99.90;;;;;;5111493;28;20759;-45
2022/06/02 11:10:43;;;;;;;2.43;2.23;;;19.20;99.90;;;;;;5111095;28;20855;-44
2022/06/02 11:13:55;;;;;;;2.50;2.30;;;19.30;99.90;;;;;;5111216;28;20791;-44
2022/06/02 11:16:50;;;;;;;2.53;2.00;;;19.50;99.90;;;;;;5111470;28;20510;-45
2022/06/02 11:19:53;;;;;;;3.13;2.20;;;19.50;99.90;;;;;;5110909;28;20466;-45
2022/06/02 11:22:55;;;;;;;2.67;2.47;;;19.70;99.90;;;;;;5111217;28;21021;-45
2022/06/02 11:25:52;;;;;;;2.17;1.97;;;19.70;99.90;;;;;;5110704;28;20484;-45
2022/06/02 11:28:38;;;;;;;2.70;2.30;;;19.80;99.90;;;;;;5111252;28;20471;-47
2022/06/02 11:31:43;;;;;;;2.67;2.47;;;19.90;99.90;;;;;;5111395;28;20485;-44
2022/06/02 11:34:24;;;;;;;2.47;2.27;;;19.90;99.90;;;;;;5059109;28;20498;-45
2022/06/02 11:37:25;;;;;;;2.10;1.90;;;19.90;99.90;;;;;;5113247;28;20469;-46
2022/06/02 11:40:22;;;;;;;2.90;2.50;;;20.00;99.90;;;;;;5114435;28;20442;-45
2022/06/02 11:43:12;;;;;;;2.83;2.57;;;20.00;99.90;;;;;;5115214;28;20960;-45
2022/06/02 11:46:19;;;;;;;5.23;2.30;;;20.00;99.90;;;;;;5114978;28;20472;-48
2022/06/02 11:49:29;;;;;;;2.47;2.27;;;20.10;99.90;;;;;;5113634;28;20478;-46
2022/06/02 11:52:21;;;;;;;2.93;2.63;;;20.10;99.90;;;;;;5115428;28;20827;-45
2022/06/02 11:55:15;;;;;;;2.87;2.67;;;20.00;99.90;;;;;;5114904;28;20893;-47
2022/06/02 11:58:08;;;;;;;2.50;2.23;;;20.10;99.90;;;;;;5110953;28;20485;-45
2022/06/02 12:01:06;;;;;;;2.73;2.53;;;20.10;99.90;;;;;;5114218;28;20430;-46
2022/06/02 12:04:16;;;;;;;2.90;2.60;;;20.00;99.90;;;;;;5114376;28;20485;-45
2022/06/02 12:07:21;;;;;;;2.47;2.27;;;20.00;99.90;;;;;;5114622;28;20474;-45
2022/06/02 12:10:19;;;;;;;2.80;2.50;;;20.10;99.90;;;;;;5114688;28;20517;-45
2022/06/02 12:13:01;;;;;;;3.10;2.80;;;20.20;99.90;;;;;;5114791;28;20442;-45
2022/06/02 12:15:55;;;;;;;3.30;3.00;;;20.20;99.90;;;;;;5114211;28;20486;-47
2022/06/02 12:18:30;;;;;;;2.57;2.37;;;20.30;99.90;;;;;;5114671;28;20521;-45
2022/06/02 12:21:31;;;;;;;2.90;2.70;;;20.40;99.90;;;;;;5113974;28;20470;-44
2022/06/02 12:24:31;;;;;;;2.73;2.53;;;20.50;99.90;;;;;;5168133;22;20473;-43
2022/06/02 12:27:37;;;;;;;2.87;2.60;;;20.60;99.90;;;;;;5073159;28;20561;-48
2022/06/02 12:30:19;;;;;;;3.70;2.23;;;20.50;99.90;;;;;;5072663;28;20443;-46
2022/06/02 12:33:04;;;;;;;2.50;2.30;;;20.60;99.90;;;;;;5073632;28;20471;-44
2022/06/02 12:35:50;;;;;;;4.30;2.20;;;20.50;99.90;;;;;;5089238;28;20494;-44
2022/06/02 12:38:52;;;;;;;3.23;2.93;;;20.50;99.90;;;;;;5093453;28;21302;-47
2022/06/02 12:41:48;;;;;;;2.37;2.17;;;20.50;99.90;;;;;;5040209;28;20551;-45
2022/06/02 12:44:42;;;;;;;3.10;1.70;;;20.40;99.90;;;;;;5093458;28;21256;-45
2022/06/02 12:47:56;;;;;;;3.17;2.10;;;20.40;99.90;;;;;;5092753;28;20579;-45
2022/06/02 12:50:52;;;;;;;2.20;2.00;;;20.40;99.90;;;;;;5093344;28;20577;-44
2022/06/02 12:53:50;;;;;;;3.10;2.00;;;20.30;99.90;;;;;;5093634;28;20447;-45
2022/06/02 12:56:39;;;;;;;2.73;2.23;;;20.20;99.90;;;;;;5093266;28;20948;-48
2022/06/02 12:59:32;;;;;;;2.27;2.07;;;20.10;99.90;;;;;;5092776;28;20940;-47
2022/06/02 13:02:07;;;;;;;2.07;1.87;;;20.10;99.90;;;;;;5093178;28;21023;-45
2022/06/02 13:05:08;;;;;;;2.40;2.03;;;20.00;99.90;;;;;;5093022;28;20459;-45
2022/06/02 13:08:26;;;;;;;2.20;2.00;;;19.90;99.90;;;;;;5092984;28;20488;-44
2022/06/02 13:11:09;;;;;;;3.77;2.60;;;19.80;99.90;;;;;;4990852;28;20471;-45
2022/06/02 13:14:14;;;;;;;2.27;2.07;;;19.80;99.90;;;;;;5093287;28;20439;-44
2022/06/02 13:17:18;;;;;;;5.10;2.87;;;19.70;99.90;;;;;;5037855;28;20439;-45
2022/06/02 13:20:08;;;;;;;2.90;2.60;;;19.60;99.90;;;;;;5092743;28;20482;-45
2022/06/02 13:22:57;;;;;;;6.43;3.43;;;19.30;99.90;;;;;;5092814;28;20885;-44
2022/06/02 13:26:06;;;;;;;3.50;3.20;;;18.80;99.90;;;;;;5092290;28;20550;-45
2022/06/02 13:29:06;;;;;;;4.00;3.30;;;18.40;99.90;;;;;;5044152;28;20444;-45
2022/06/02 13:32:01;;;;;;;3.63;3.33;;;18.20;99.90;;;;;;5084815;28;20454;-44
2022/06/02 13:34:58;;;;;;;3.60;3.30;;;18.10;99.90;;;;;;5092765;28;20464;-44
2022/06/02 13:37:47;;;;;;;5.30;3.73;;;18.20;99.90;;;;;;5092591;28;20855;-44
2022/06/02 13:40:25;;;;;;;4.87;3.63;;;18.30;99.90;;;;;;5092011;28;20435;-45
2022/06/02 13:43:36;;;;;;;4.07;3.67;;;18.00;99.90;;;;;;5092639;28;20763;-45
2022/06/02 13:46:28;;;;;;;3.90;3.60;;;17.80;99.90;;;;;;5092212;28;20507;-49
2022/06/02 13:49:37;;;;;;;5.80;3.37;;;17.80;99.90;;;;;;5071647;28;20451;-45
2022/06/02 13:53:05;;;;;;;3.73;3.40;;;17.90;99.90;;;;;;5092070;28;20951;-46
2022/06/02 13:59:11;;;;;;;3.30;3.00;;;18.20;99.90;;;;;;5092073;28;20617;-44
2022/06/02 14:01:59;;;;;;;3.67;3.30;;;18.30;99.90;;;;;;5038987;28;20471;-48
2022/06/02 14:04:49;;;;;;;4.30;3.90;;;18.40;99.90;;;;;;5091816;28;20526;-45
2022/06/02 14:07:44;;;;;;;4.13;3.73;;;18.60;99.90;;;;;;5091495;28;20554;-47
2022/06/02 14:10:36;;;;;;;3.83;3.40;;;18.70;99.90;;;;;;5091743;28;20542;-46
2022/06/02 14:13:34;;;;;;;5.77;4.83;;;18.70;99.90;;;;;;5091963;28;20475;-47
2022/06/02 14:16:10;;;;;;;4.50;4.10;;;18.60;99.90;;;;;;5091562;28;20936;-45
2022/06/02 14:18:57;;;;;;;3.07;2.87;;;18.70;99.90;;;;;;5091833;28;20475;-47
2022/06/02 14:21:35;;;;;;;3.70;3.37;;;18.80;99.90;;;;;;5089628;28;20963;-45
2022/06/02 14:24:10;;;;;;;3.40;3.10;;;18.90;99.90;;;;;;5091451;28;20459;-45
2022/06/02 14:26:52;;;;;;;3.13;2.83;;;19.00;99.90;;;;;;5091240;28;20478;-45
2022/06/02 14:29:32;;;;;;;3.37;3.07;;;19.00;99.90;;;;;;5091224;28;20450;-49
2022/06/02 14:32:07;;;;;;;3.67;3.37;;;19.00;99.90;;;;;;5091336;28;20443;-45
2022/06/02 14:34:46;;;;;;;2.70;2.50;;;19.10;99.90;;;;;;5091172;28;20464;-45
2022/06/02 14:37:21;;;;;;;3.87;3.53;;;19.10;99.90;;;;;;5091496;28;20467;-45